Time;durP1;ratioP1;P1;durP2;ratioP2;P2;SDS_P1;SDS_P2;PMS_P1;PMS_P2;Temp;Humidity;BMP_temperature;BMP_pressure;BME280_temperature;BME280_humidity;BME280_pressure;Samples;Min_cycle;Max_cycle;Signal;HPM_P1;HPM_P2
2021/01/01 00:01:33;;;;;;;232.20;95.28;;;8.90;59.20;;;;;;5042867;28;20272;-63
2021/01/01 00:03:59;;;;;;;213.52;77.97;;;;;;;;;;5056322;28;20060;-65
2021/01/01 00:06:26;;;;;;;183.98;73.40;;;;;;;;;;5062479;28;20039;-64
2021/01/01 00:08:52;;;;;;;149.50;59.55;;;;;;;;;;5046917;28;20037;-63
2021/01/01 00:11:18;;;;;;;128.50;53.10;;;;;;;;;;5058827;28;20035;-63
2021/01/01 00:13:45;;;;;;;121.72;50.72;;;;;;;;;;5056973;28;20029;-63
2021/01/01 00:16:13;;;;;;;117.97;49.78;;;9.00;58.70;;;;;;5056758;28;20033;-62
2021/01/01 00:18:39;;;;;;;107.70;49.00;;;;;;;;;;5058797;28;20037;-63
2021/01/01 00:21:06;;;;;;;118.38;49.03;;;;;;;;;;5055610;28;20037;-65
2021/01/01 00:23:32;;;;;;;123.07;53.47;;;;;;;;;;5060162;28;20063;-64
2021/01/01 00:25:59;;;;;;;128.82;53.75;;;;;;;;;;5055431;28;20057;-63
2021/01/01 00:28:25;;;;;;;130.98;61.10;;;;;;;;;;5054352;28;20067;-62
2021/01/01 00:30:52;;;;;;;141.65;60.17;;;;;;;;;;5050383;28;20056;-64
2021/01/01 00:33:18;;;;;;;;;;;9.10;58.30;;;;;;5050107;28;20025;-63
2021/01/01 00:35:44;;;;;;;151.65;67.20;;;;;;;;;;5050449;28;19983;-65
2021/01/01 00:38:11;;;;;;;154.10;68.43;;;;;;;;;;5050654;28;20077;-64
2021/01/01 00:40:37;;;;;;;165.07;69.63;;;;;;;;;;5050401;28;20040;-63
2021/01/01 00:43:03;;;;;;;176.38;70.93;;;;;;;;;;5050393;28;20049;-64
2021/01/01 00:45:30;;;;;;;162.70;66.93;;;;;;;;;;5050274;28;20041;-63
2021/01/01 00:47:56;;;;;;;152.57;66.75;;;;;;;;;;5052909;28;20074;-63
2021/01/01 00:50:22;;;;;;;144.95;64.15;;;;;;;;;;5054341;28;20480;-63
2021/01/01 00:52:48;;;;;;;131.98;61.78;;;;;;;;;;5054623;28;20026;-62
2021/01/01 00:55:15;;;;;;;141.30;57.88;;;;;;;;;;5056780;28;20464;-63
2021/01/01 00:57:41;;;;;;;129.00;57.28;;;;;;;;;;5052767;28;20120;-63
2021/01/01 01:00:08;;;;;;;135.73;58.60;;;9.20;58.00;;;;;;5054092;28;20099;-64
2021/01/01 01:02:35;;;;;;;138.00;60.53;;;;;;;;;;5054065;28;20412;-65
2021/01/01 01:05:01;;;;;;;130.45;59.05;;;;;;;;;;5054206;28;20032;-64
2021/01/01 01:07:27;;;;;;;168.88;69.95;;;;;;;;;;5053905;28;20057;-64
2021/01/01 01:09:54;;;;;;;173.40;73.68;;;;;;;;;;5054093;28;20117;-64
2021/01/01 01:12:21;;;;;;;194.23;81.82;;;;;;;;;;5053756;28;20104;-62
2021/01/01 01:14:47;;;;;;;201.75;85.13;;;;;;;;;;5053896;28;20032;-63
2021/01/01 01:17:14;;;;;;;208.13;88.22;;;;;;;;;;5053830;28;20043;-63
2021/01/01 01:19:40;;;;;;;215.90;87.95;;;9.00;58.90;;;;;;5053725;28;20037;-63
2021/01/01 01:22:06;;;;;;;188.43;83.75;;;;;;;;;;5053828;28;20188;-64
2021/01/01 01:24:33;;;;;;;199.70;81.85;;;;;;;;;;5053397;28;20036;-63
2021/01/01 01:26:59;;;;;;;;;;;8.90;59.00;;;;;;5054138;28;20578;-64
2021/01/01 01:29:25;;;;;;;223.82;88.40;;;;;;;;;;5053760;28;19913;-63
2021/01/01 01:31:52;;;;;;;192.85;87.55;;;;;;;;;;5053450;28;20399;-63
2021/01/01 01:34:18;;;;;;;218.10;88.88;;;;;;;;;;5053651;28;20114;-63
2021/01/01 01:36:44;;;;;;;207.57;88.20;;;;;;;;;;5053427;28;20028;-63
2021/01/01 01:39:11;;;;;;;211.90;92.47;;;;;;;;;;5050573;28;20048;-63
2021/01/01 01:41:37;;;;;;;208.32;89.97;;;;;;;;;;5073293;28;20028;-63
2021/01/01 01:44:03;;;;;;;209.45;90.20;;;;;;;;;;5073062;28;20036;-63
2021/01/01 01:46:39;;;;;;;210.27;93.80;;;8.90;59.20;;;;;;5073196;28;20601;-64
2021/01/01 01:49:05;;;;;;;226.20;94.75;;;;;;;;;;5073336;28;20021;-63
2021/01/01 01:51:33;;;;;;;237.45;97.10;;;9.00;59.00;;;;;;5073226;28;20071;-63
2021/01/01 01:53:59;;;;;;;232.50;102.53;;;;;;;;;;5073093;28;20028;-63
2021/01/01 01:56:26;;;;;;;266.67;113.35;;;;;;;;;;5073136;28;20056;-63
2021/01/01 01:58:52;;;;;;;274.25;118.20;;;;;;;;;;5072514;28;20043;-63
2021/01/01 02:01:19;;;;;;;274.75;118.18;;;;;;;;;;5072940;28;20020;-64
2021/01/01 02:03:46;;;;;;;291.17;124.70;;;;;;;;;;5073028;28;20337;-64
2021/01/01 02:06:12;;;;;;;300.40;128.98;;;;;;;;;;5072567;28;20032;-64
2021/01/01 02:08:38;;;;;;;301.17;129.95;;;;;;;;;;5072968;28;20162;-63
2021/01/01 02:11:05;;;;;;;287.75;124.28;;;8.80;59.40;;;;;;5072835;28;20096;-63
2021/01/01 02:13:32;;;;;;;277.23;122.60;;;;;;;;;;5072356;28;20033;-63
2021/01/01 02:15:58;;;;;;;296.17;122.65;;;;;;;;;;5072561;28;20024;-64
2021/01/01 02:18:41;;;;;;;280.40;122.72;;;8.80;59.30;;;;;;5072767;28;20017;-63
2021/01/01 02:21:11;;;;;;;282.60;122.75;;;8.80;59.30;;;;;;5072508;28;20056;-63
2021/01/01 02:23:38;;;;;;;275.40;120.60;;;;;;;;;;5071128;28;20068;-63
2021/01/01 02:26:04;;;;;;;290.00;123.53;;;;;;;;;;5072421;28;20064;-62
2021/01/01 02:28:31;;;;;;;290.50;127.25;;;;;;;;;;5072320;28;20562;-64
2021/01/01 02:30:57;;;;;;;297.20;127.47;;;;;;;;;;5072247;28;20036;-63
2021/01/01 02:33:24;;;;;;;296.83;124.82;;;;;;;;;;5072275;28;20021;-63
2021/01/01 02:35:50;;;;;;;312.92;131.32;;;;;;;;;;5072158;28;20502;-63
2021/01/01 02:38:16;;;;;;;292.65;131.05;;;;;;;;;;5072028;28;20040;-62
2021/01/01 02:40:42;;;;;;;326.55;138.07;;;;;;;;;;5072071;28;20079;-64
2021/01/01 02:43:09;;;;;;;325.58;135.02;;;;;;;;;;5072122;28;20064;-64
2021/01/01 02:45:35;;;;;;;300.35;132.88;;;;;;;;;;5072198;28;20041;-61
2021/01/01 02:48:13;;;;;;;308.27;133.55;;;8.80;59.20;;;;;;5072111;28;20403;-64
2021/01/01 02:50:39;;;;;;;303.55;123.80;;;;;;;;;;5071780;28;20039;-63
2021/01/01 02:53:05;;;;;;;309.15;128.48;;;;;;;;;;5072000;28;20098;-63
2021/01/01 02:55:32;;;;;;;326.55;135.23;;;;;;;;;;5071610;28;20044;-63
2021/01/01 02:57:59;;;;;;;315.25;129.50;;;;;;;;;;5071850;28;20029;-62
2021/01/01 03:00:25;;;;;;;274.63;120.95;;;;;;;;;;5071721;28;20079;-63
2021/01/01 03:02:52;;;;;;;287.70;118.43;;;;;;;;;;5063772;28;20579;-64
2021/01/01 03:05:18;;;;;;;270.20;116.32;;;;;;;;;;5065862;28;20028;-61
2021/01/01 03:07:44;;;;;;;270.88;111.80;;;;;;;;;;5071596;28;20074;-64
2021/01/01 03:10:10;;;;;;;251.05;111.97;;;;;;;;;;5071040;28;20078;-63
2021/01/01 03:12:37;;;;;;;264.58;109.63;;;;;;;;;;5071740;28;20059;-63
2021/01/01 03:15:05;;;;;;;247.02;106.47;;;8.80;59.00;;;;;;5071617;28;20032;-63
2021/01/01 03:17:31;;;;;;;263.73;111.25;;;;;;;;;;5071265;28;20037;-63
2021/01/01 03:19:57;;;;;;;246.15;108.63;;;;;;;;;;5053815;28;20044;-63
2021/01/01 03:22:23;;;;;;;262.63;109.22;;;;;;;;;;5071164;28;20087;-63
2021/01/01 03:24:50;;;;;;;249.45;109.82;;;;;;;;;;5071246;28;20029;-63
2021/01/01 03:27:16;;;;;;;259.85;109.80;;;;;;;;;;5071272;28;20527;-63
2021/01/01 03:29:42;;;;;;;249.15;105.13;;;;;;;;;;5069784;28;20056;-63
2021/01/01 03:32:08;;;;;;;270.92;111.95;;;;;;;;;;5071316;28;20039;-63
2021/01/01 03:34:35;;;;;;;250.95;110.53;;;;;;;;;;5071151;28;20025;-64
2021/01/01 03:37:01;;;;;;;242.05;106.35;;;;;;;;;;5071203;28;20040;-63
2021/01/01 03:39:27;;;;;;;251.77;107.57;;;;;;;;;;5071009;28;20064;-63
2021/01/01 03:41:54;;;;;;;253.73;105.03;;;;;;;;;;5071039;28;20036;-64
2021/01/01 03:44:20;;;;;;;248.90;106.88;;;;;;;;;;5070082;28;20029;-64
2021/01/01 03:46:46;;;;;;;236.55;104.22;;;;;;;;;;5070863;28;20067;-64
2021/01/01 03:49:12;;;;;;;251.32;104.13;;;;;;;;;;5071732;28;20098;-64
2021/01/01 03:51:39;;;;;;;233.05;97.95;;;;;;;;;;5071872;28;20029;-63
2021/01/01 03:54:05;;;;;;;234.57;101.10;;;;;;;;;;5070823;28;20040;-64
2021/01/01 03:56:31;;;;;;;222.75;95.75;;;;;;;;;;5071548;28;20044;-64
2021/01/01 03:58:58;;;;;;;224.85;97.47;;;;;;;;;;5069716;28;20475;-64
2021/01/01 04:01:24;;;;;;;217.88;91.97;;;;;;;;;;5070912;28;20044;-64
2021/01/01 04:03:50;;;;;;;216.15;92.05;;;;;;;;;;5070781;28;20391;-63
2021/01/01 04:06:16;;;;;;;210.90;89.28;;;;;;;;;;5070660;28;20033;-63
2021/01/01 04:08:43;;;;;;;208.27;86.45;;;;;;;;;;5070667;28;20032;-64
2021/01/01 04:11:09;;;;;;;206.15;89.28;;;;;;;;;;5070832;28;20339;-63
2021/01/01 04:13:35;;;;;;;212.02;87.32;;;;;;;;;;5070735;28;20025;-63
2021/01/01 04:16:02;;;;;;;218.88;90.28;;;8.40;59.30;;;;;;5069482;28;20056;-63
2021/01/01 04:18:28;;;;;;;195.73;85.25;;;;;;;;;;5070890;28;20067;-63
2021/01/01 04:20:55;;;;;;;197.65;84.25;;;;;;;;;;5071294;28;20037;-63
2021/01/01 04:23:21;;;;;;;204.98;84.70;;;;;;;;;;5074790;28;20036;-63
2021/01/01 04:25:48;;;;;;;184.32;79.38;;;;;;;;;;5074375;28;20070;-62
2021/01/01 04:28:14;;;;;;;182.18;76.32;;;;;;;;;;5075037;28;20028;-62
2021/01/01 04:30:40;;;;;;;188.65;78.35;;;;;;;;;;5074609;28;20068;-63
2021/01/01 04:33:07;;;;;;;178.60;74.88;;;;;;;;;;5074635;28;20028;-63
2021/01/01 04:35:33;;;;;;;184.63;74.63;;;;;;;;;;5074633;28;20032;-62
2021/01/01 04:37:59;;;;;;;160.73;71.07;;;;;;;;;;5074467;28;20025;-64
2021/01/01 04:40:26;;;;;;;173.98;73.30;;;;;;;;;;5074514;28;20126;-63
2021/01/01 04:42:52;;;;;;;163.38;70.80;;;;;;;;;;5074477;28;20048;-63
2021/01/01 04:45:18;;;;;;;156.25;71.43;;;;;;;;;;5074502;28;20498;-63
2021/01/01 04:47:45;;;;;;;181.27;73.55;;;8.30;59.50;;;;;;5074245;28;20021;-63
2021/01/01 04:50:11;;;;;;;;;;;9.10;60.40;;;;;;5074605;28;20107;-63
2021/01/01 04:52:39;;;;;;;167.77;67.50;;;8.30;59.30;;;;;;5074359;28;19908;-63
2021/01/01 04:55:06;;;;;;;156.07;66.10;;;;;;;;;;5073948;28;20530;-62
2021/01/01 04:57:32;;;;;;;160.63;62.75;;;;;;;;;;5074046;28;20082;-63
2021/01/01 04:59:58;;;;;;;146.30;62.47;;;;;;;;;;5074149;28;20028;-65
2021/01/01 05:02:25;;;;;;;146.52;62.53;;;;;;;;;;5073782;28;20465;-64
2021/01/01 05:04:51;;;;;;;148.55;62.28;;;;;;;;;;5073981;28;20425;-62
2021/01/01 05:07:20;;;;;;;151.57;60.40;;;8.30;59.70;;;;;;5073572;28;20039;-62
2021/01/01 05:09:48;;;;;;;159.90;65.05;;;8.20;59.60;;;;;;5072455;28;20372;-64
2021/01/01 05:12:14;;;;;;;136.57;57.55;;;;;;;;;;5073885;28;20028;-63
2021/01/01 05:14:42;;;;;;;138.20;58.65;;;;;;;;;;5073942;28;20093;-63
2021/01/01 05:17:09;;;;;;;129.80;58.40;;;8.20;59.80;;;;;;5073870;28;20482;-64
2021/01/01 05:19:42;;;;;;;136.27;56.95;;;8.30;60.00;;;;;;5073758;28;20028;-64
2021/01/01 05:22:10;;;;;;;136.70;55.20;;;8.20;59.90;;;;;;5073707;28;20504;-63
2021/01/01 05:24:46;;;;;;;135.82;58.35;;;8.30;59.80;;;;;;5073308;28;20033;-63
2021/01/01 05:27:17;;;;;;;125.82;51.95;;;8.30;59.70;;;;;;5073696;28;20476;-64
2021/01/01 05:29:54;;;;;;;140.55;55.60;;;8.30;59.70;;;;;;5073784;28;20178;-64
2021/01/01 05:32:25;;;;;;;127.72;53.38;;;8.30;59.70;;;;;;5073218;28;20036;-63
2021/01/01 05:34:51;;;;;;;126.10;51.45;;;;;;;;;;5073076;28;20036;-63
2021/01/01 05:37:31;;;;;;;121.15;51.03;;;8.20;59.80;;;;;;5073347;28;20032;-64
2021/01/01 05:40:09;;;;;;;115.13;51.72;;;8.30;60.00;;;;;;5073519;28;20040;-64
2021/01/01 05:42:35;;;;;;;128.82;51.28;;;;;;;;;;5073531;28;20115;-63
2021/01/01 05:45:15;;;;;;;125.85;49.35;;;8.30;59.70;;;;;;5073191;28;20397;-63
2021/01/01 05:47:41;;;;;;;128.75;50.25;;;;;;;;;;5073016;28;20488;-63
2021/01/01 05:50:08;;;;;;;122.93;53.10;;;8.20;60.00;;;;;;5073369;28;20459;-62
2021/01/01 05:52:35;;;;;;;119.68;51.63;;;;;;;;;;5073509;28;20029;-62
2021/01/01 05:55:03;;;;;;;127.55;54.15;;;8.20;60.00;;;;;;5073363;28;20111;-63
2021/01/01 05:57:39;;;;;;;125.95;52.80;;;8.30;59.90;;;;;;5073045;28;20039;-62
2021/01/01 06:00:05;;;;;;;133.35;51.83;;;;;;;;;;5073133;28;20056;-63
2021/01/01 06:02:40;;;;;;;119.75;50.95;;;8.30;59.70;;;;;;5072907;28;20040;-65
2021/01/01 06:05:09;;;;;;;127.05;53.38;;;8.40;59.70;;;;;;5072999;28;20099;-63
2021/01/01 06:07:36;;;;;;;133.43;54.33;;;8.40;59.70;;;;;;5075429;28;20470;-63
2021/01/01 06:10:07;;;;;;;133.57;53.35;;;8.40;59.60;;;;;;5073992;28;20037;-64
2021/01/01 06:12:37;;;;;;;130.20;54.83;;;8.40;59.50;;;;;;5072563;28;20102;-63
2021/01/01 06:15:08;;;;;;;128.13;56.88;;;8.40;59.40;;;;;;5072636;28;20037;-63
2021/01/01 06:17:51;;;;;;;132.00;55.28;;;8.30;59.50;;;;;;5072653;28;20020;-63
2021/01/01 06:20:22;;;;;;;138.75;54.88;;;8.40;59.50;;;;;;5072619;28;20400;-63
2021/01/01 06:23:02;;;;;;;133.10;53.85;;;8.30;59.30;;;;;;5072359;28;20090;-64
2021/01/01 06:25:29;;;;;;;133.88;54.25;;;8.40;59.30;;;;;;5072252;28;20032;-66
2021/01/01 06:27:55;;;;;;;120.93;54.55;;;;;;;;;;5072374;28;20023;-64
2021/01/01 06:30:26;;;;;;;121.50;52.92;;;8.40;59.30;;;;;;5072509;28;20037;-63
2021/01/01 06:32:53;;;;;;;126.25;53.00;;;8.40;59.10;;;;;;5072271;28;20043;-64
2021/01/01 06:35:22;;;;;;;129.20;54.83;;;8.40;58.80;;;;;;5072416;28;20033;-64
2021/01/01 06:37:55;;;;;;;133.77;55.05;;;8.40;58.90;;;;;;5071992;28;20028;-64
2021/01/01 06:40:21;;;;;;;137.65;56.22;;;;;;;;;;5072402;28;20039;-63
2021/01/01 06:42:51;;;;;;;153.20;57.00;;;8.40;59.00;;;;;;5072136;28;20125;-63
2021/01/01 06:45:39;;;;;;;141.05;56.58;;;8.30;59.10;;;;;;5069730;28;20036;-62
2021/01/01 06:48:18;;;;;;;139.77;57.90;;;8.40;59.00;;;;;;5071841;28;20218;-63
2021/01/01 06:50:48;;;;;;;130.70;56.72;;;8.40;59.00;;;;;;5072191;28;20039;-64
2021/01/01 06:53:16;;;;;;;138.30;56.70;;;8.30;59.00;;;;;;5064989;28;20060;-64
2021/01/01 06:55:46;;;;;;;138.75;59.33;;;8.30;59.10;;;;;;5044294;28;20117;-62
2021/01/01 06:58:14;;;;;;;147.65;60.70;;;8.30;59.10;;;;;;5054348;28;20033;-63
2021/01/01 07:00:48;;;;;;;137.57;54.03;;;8.30;59.00;;;;;;5055930;28;20032;-62
2021/01/01 07:03:27;;;;;;;146.63;57.80;;;8.30;59.00;;;;;;5053587;28;20091;-63
2021/01/01 07:05:54;;;;;;;138.20;57.42;;;;;;;;;;5055600;28;20044;-62
2021/01/01 07:08:42;;;;;;;157.50;59.08;;;8.30;59.10;;;;;;5053945;28;20510;-63
2021/01/01 07:11:08;;;;;;;155.00;59.85;;;;;;;;;;5055575;28;20026;-64
2021/01/01 07:13:41;;;;;;;158.10;60.33;;;8.20;59.30;;;;;;5053486;28;20036;-64
2021/01/01 07:16:07;;;;;;;150.50;62.35;;;;;;;;;;5055336;28;20029;-63
2021/01/01 07:18:33;;;;;;;160.02;61.70;;;;;;;;;;5053575;28;20131;-63
2021/01/01 07:21:00;;;;;;;154.07;60.70;;;;;;;;;;5053461;28;20089;-63
2021/01/01 07:23:30;;;;;;;152.43;61.60;;;8.30;59.10;;;;;;5053459;28;20049;-63
2021/01/01 07:25:56;;;;;;;150.85;58.78;;;;;;;;;;5055234;28;20057;-63
2021/01/01 07:28:23;;;;;;;153.43;60.13;;;8.20;58.90;;;;;;5053434;28;20025;-64
2021/01/01 07:30:49;;;;;;;;;;;8.20;59.40;;;;;;5054175;28;20059;-63
2021/01/01 07:33:25;;;;;;;142.02;56.80;;;8.20;58.90;;;;;;5055133;28;19919;-63
2021/01/01 07:35:52;;;;;;;137.13;56.75;;;;;;;;;;5049561;28;20051;-63
2021/01/01 07:38:19;;;;;;;133.30;51.97;;;;;;;;;;5053355;28;20040;-62
2021/01/01 07:40:48;;;;;;;134.77;49.92;;;8.10;59.10;;;;;;5053813;28;20105;-63
2021/01/01 07:43:14;;;;;;;122.47;52.83;;;;;;;;;;5047815;28;20037;-62
2021/01/01 07:45:41;;;;;;;121.72;53.13;;;;;;;;;;5052638;28;20037;-62
2021/01/01 07:48:07;;;;;;;117.65;49.28;;;;;;;;;;5056370;28;20031;-63
2021/01/01 07:50:35;;;;;;;128.45;50.78;;;8.10;59.30;;;;;;5069561;28;20029;-65
2021/01/01 07:53:06;;;;;;;125.53;50.88;;;8.10;59.30;;;;;;5052842;28;20067;-63
2021/01/01 07:55:32;;;;;;;128.32;49.83;;;;;;;;;;5060978;28;20032;-63
2021/01/01 07:58:04;;;;;;;117.90;47.92;;;8.10;59.60;;;;;;5054614;28;20025;-63
2021/01/01 08:00:31;;;;;;;119.53;47.00;;;8.10;59.70;;;;;;4362836;28;10000742;-63
2021/01/01 08:02:58;;;;;;;116.57;46.25;;;;;;;;;;5068602;28;20071;-63
2021/01/01 08:05:24;;;;;;;114.65;47.85;;;;;;;;;;5049035;28;20446;-62
2021/01/01 08:07:50;;;;;;;104.63;44.03;;;;;;;;;;5049131;28;20028;-63
2021/01/01 08:10:30;;;;;;;96.72;40.75;;;8.10;59.80;;;;;;5061091;28;20040;-63
2021/01/01 08:12:56;;;;;;;94.68;37.78;;;;;;;;;;5042257;28;20051;-63
2021/01/01 08:15:32;;;;;;;102.30;40.42;;;8.20;59.70;;;;;;5068548;28;20063;-62
2021/01/01 08:18:11;;;;;;;98.10;40.92;;;8.10;59.50;;;;;;5068474;28;20033;-62
2021/01/01 08:20:38;;;;;;;92.60;36.95;;;;;;;;;;5068294;28;20032;-63
2021/01/01 08:23:09;;;;;;;98.65;37.20;;;8.20;59.40;;;;;;5068537;28;20051;-64
2021/01/01 08:25:36;;;;;;;98.55;37.70;;;;;;;;;;5070721;28;20530;-65
2021/01/01 08:28:03;;;;;;;;;;;8.20;59.30;;;;;;5069186;28;20037;-63
2021/01/01 08:30:30;;;;;;;92.70;34.35;;;;;;;;;;5053285;28;19916;-64
2021/01/01 08:32:57;;;;;;;93.97;35.38;;;8.10;59.30;;;;;;5049004;28;20033;-63
2021/01/01 08:35:25;;;;;;;82.88;34.03;;;8.10;59.50;;;;;;5048231;28;20404;-63
2021/01/01 08:37:51;;;;;;;88.30;35.38;;;;;;;;;;5048606;28;20040;-63
2021/01/01 08:40:18;;;;;;;73.03;32.50;;;;;;;;;;5048502;28;20037;-63
2021/01/01 08:42:44;;;;;;;82.88;35.72;;;;;;;;;;5049103;28;20037;-62
2021/01/01 08:45:11;;;;;;;81.18;34.58;;;8.20;59.40;;;;;;5050666;28;20086;-63
2021/01/01 08:47:51;;;;;;;80.13;32.25;;;8.20;59.40;;;;;;5059463;28;20033;-63
2021/01/01 08:50:18;;;;;;;78.20;32.03;;;8.20;59.40;;;;;;5062476;28;20029;-62
2021/01/01 08:53:02;;;;;;;;;;;8.20;59.90;;;;;;5070288;28;20082;-62
2021/01/01 08:55:29;;;;;;;71.88;30.15;;;8.20;59.10;;;;;;5068660;28;19931;-64
2021/01/01 08:58:07;;;;;;;;;;;9.30;60.20;;;;;;5070163;28;20042;-64
2021/01/01 09:00:34;;;;;;;57.60;26.58;;;;;;;;;;5068625;28;19908;-63
2021/01/01 09:03:01;;;;;;;65.95;29.10;;;;;;;;;;5067974;28;20474;-64
2021/01/01 09:05:27;;;;;;;;;;;8.10;59.40;;;;;;5068957;28;20501;-63
2021/01/01 09:08:12;;;;;;;65.78;28.80;;;8.10;59.30;;;;;;5069925;28;20374;-63
2021/01/01 09:10:43;;;;;;;68.65;28.98;;;8.20;59.40;;;;;;5072105;28;20037;-63
2021/01/01 09:13:26;;;;;;;66.75;26.42;;;8.20;59.50;;;;;;5071631;28;20029;-63
2021/01/01 09:16:08;;;;;;;59.63;26.30;;;8.20;59.50;;;;;;5072134;28;20065;-62
2021/01/01 09:18:34;;;;;;;63.78;24.90;;;;;;;;;;5073310;28;20059;-63
2021/01/01 09:21:14;;;;;;;63.60;25.33;;;8.20;59.50;;;;;;5072008;28;20074;-63
2021/01/01 09:23:41;;;;;;;56.13;24.52;;;8.20;59.50;;;;;;5072682;28;20045;-62
2021/01/01 09:26:08;;;;;;;64.45;25.90;;;;;;;;;;5071644;28;20469;-62
2021/01/01 09:28:35;;;;;;;53.92;23.67;;;8.20;59.60;;;;;;5070582;28;20101;-62
2021/01/01 09:31:02;;;;;;;54.17;23.35;;;8.20;59.60;;;;;;5050422;28;20025;-63
2021/01/01 09:33:29;;;;;;;49.15;22.23;;;;;;;;;;5073114;28;20029;-63
2021/01/01 09:35:56;;;;;;;60.40;23.48;;;;;;;;;;5072664;28;20116;-61
2021/01/01 09:38:23;;;;;;;48.45;20.02;;;;;;;;;;5073052;28;20100;-62
2021/01/01 09:40:49;;;;;;;55.35;21.23;;;;;;;;;;5072974;28;20039;-62
2021/01/01 09:43:16;;;;;;;45.88;19.95;;;;;;;;;;5072589;28;20479;-62
2021/01/01 09:45:42;;;;;;;42.38;19.63;;;;;;;;;;5073120;28;20028;-63
2021/01/01 09:48:08;;;;;;;39.30;18.27;;;;;;;;;;5072712;28;20042;-63
2021/01/01 09:50:35;;;;;;;33.78;17.50;;;;;;;;;;5073115;28;20029;-63
2021/01/01 09:53:01;;;;;;;35.60;16.10;;;;;;;;;;5073275;28;20021;-64
2021/01/01 09:55:28;;;;;;;;;;;8.30;60.30;;;;;;5073190;28;20033;-62
2021/01/01 09:57:55;;;;;;;35.95;16.33;;;;;;;;;;5073045;28;19915;-62
2021/01/01 10:00:21;;;;;;;27.70;13.95;;;;;;;;;;5072973;28;20532;-63
2021/01/01 10:02:47;;;;;;;28.98;14.25;;;;;;;;;;5072805;28;20051;-62
2021/01/01 10:05:14;;;;;;;32.38;13.48;;;;;;;;;;5072923;28;20070;-63
2021/01/01 10:07:40;;;;;;;30.02;14.18;;;;;;;;;;5072394;28;20024;-62
2021/01/01 10:10:08;;;;;;;32.65;14.27;;;8.80;60.30;;;;;;5060292;28;20110;-63
2021/01/01 10:12:34;;;;;;;29.20;13.13;;;;;;;;;;5071237;28;20403;-62
2021/01/01 10:15:00;;;;;;;25.50;12.20;;;;;;;;;;5073897;28;20033;-62
2021/01/01 10:17:27;;;;;;;26.33;13.18;;;8.80;60.80;;;;;;5072623;28;20020;-63
2021/01/01 10:19:53;;;;;;;;;;;8.80;61.30;;;;;;5071658;28;20032;-63
2021/01/01 10:22:20;;;;;;;27.92;14.07;;;;;;;;;;5072267;28;19908;-62
2021/01/01 10:24:46;;;;;;;26.77;12.55;;;;;;;;;;5072223;28;20024;-63
2021/01/01 10:27:13;;;;;;;25.00;11.50;;;9.60;62.00;;;;;;5061609;28;20124;-62
2021/01/01 10:29:39;;;;;;;;;;;11.10;63.30;;;;;;5039553;28;20072;-62
2021/01/01 10:32:12;;;;;;;24.45;11.40;;;10.30;57.80;;;;;;5046448;28;19966;-63
2021/01/01 10:34:38;;;;;;;21.98;11.68;;;;;;;;;;5058723;28;20044;-62
2021/01/01 10:37:05;;;;;;;25.23;10.82;;;;;;;;;;5055619;28;20104;-63
2021/01/01 10:39:31;;;;;;;19.95;9.75;;;;;;;;;;5055902;28;20036;-62
2021/01/01 10:41:57;;;;;;;22.77;10.40;;;;;;;;;;5037143;28;20043;-63
2021/01/01 10:44:24;;;;;;;22.58;10.98;;;;;;;;;;5047482;28;20037;-64
2021/01/01 10:46:52;;;;;;;20.10;10.32;;;;;;;;;;5051161;28;20053;-63
2021/01/01 10:49:23;;;;;;;22.00;10.25;;;10.90;56.70;;;;;;5035571;28;20040;-64
2021/01/01 10:51:49;;;;;;;22.55;9.63;;;;;;;;;;5048920;28;20054;-61
2021/01/01 10:54:16;;;;;;;24.15;9.35;;;;;;;;;;5040030;28;20029;-63
2021/01/01 10:56:45;;;;;;;15.55;8.85;;;11.50;54.40;;;;;;5045605;28;20037;-62
2021/01/01 10:59:11;;;;;;;19.98;9.25;;;;;;;;;;5055990;28;20505;-63
2021/01/01 11:01:37;;;;;;;19.38;9.30;;;;;;;;;;5067676;28;20056;-63
2021/01/01 11:04:04;;;;;;;19.33;9.18;;;;;;;;;;5066306;28;20429;-63
2021/01/01 11:06:30;;;;;;;19.48;9.35;;;;;;;;;;5066113;28;20025;-63
2021/01/01 11:08:56;;;;;;;21.13;9.15;;;;;;;;;;5061836;28;20052;-63
2021/01/01 11:11:23;;;;;;;19.15;9.55;;;;;;;;;;5051981;28;20115;-64
2021/01/01 11:14:02;;;;;;;21.60;9.50;;;;;;;;;;5052637;28;20479;-63
2021/01/01 12:25:21;;;;;;;18.33;8.45;;;;;;;;;;5053383;28;20044;-62
2021/01/01 12:27:48;;;;;;;16.25;8.73;;;11.90;54.40;;;;;;5059996;28;20569;-63
2021/01/01 12:30:16;;;;;;;18.55;8.00;;;12.00;54.10;;;;;;5064089;28;20039;-62
2021/01/01 12:32:42;;;;;;;16.63;7.85;;;;;;;;;;5058451;28;20137;-63
2021/01/01 12:35:11;;;;;;;13.55;6.97;;;12.00;53.90;;;;;;5061415;28;20028;-61
2021/01/01 12:37:38;;;;;;;14.40;7.18;;;11.80;53.80;;;;;;5057844;28;20101;-63
2021/01/01 12:40:05;;;;;;;19.95;7.15;;;11.80;54.00;;;;;;5064255;28;20170;-63
2021/01/01 12:42:33;;;;;;;16.40;6.93;;;;;;;;;;5049747;28;20043;-62
2021/01/01 12:44:59;;;;;;;11.88;6.75;;;;;;;;;;5055640;28;20429;-62
2021/01/01 12:47:26;;;;;;;14.00;6.55;;;;;;;;;;5057277;28;20043;-63
2021/01/01 12:49:53;;;;;;;17.35;5.85;;;;;;;;;;5059853;28;20036;-64
2021/01/01 12:52:19;;;;;;;;;;;11.70;54.00;;;;;;5071314;28;20025;-62
2021/01/01 12:54:46;;;;;;;13.27;6.07;;;;;;;;;;5071873;28;19908;-64
2021/01/01 12:57:12;;;;;;;12.75;6.28;;;;;;;;;;5070640;28;20029;-63
2021/01/01 12:59:38;;;;;;;20.40;6.05;;;;;;;;;;5071247;28;20037;-64
2021/01/01 13:02:04;;;;;;;17.98;6.50;;;;;;;;;;5070979;28;20036;-63
2021/01/01 13:04:31;;;;;;;13.13;6.05;;;;;;;;;;5070859;28;20041;-63
2021/01/01 13:06:57;;;;;;;14.05;6.35;;;;;;;;;;5067667;28;20471;-63
2021/01/01 13:09:23;;;;;;;17.48;7.70;;;;;;;;;;5070767;28;20041;-63
2021/01/01 13:11:50;;;;;;;13.32;5.78;;;;;;;;;;5069896;28;20059;-63
2021/01/01 13:14:16;;;;;;;12.95;5.25;;;;;;;;;;5071194;28;20099;-63
2021/01/01 13:16:47;;;;;;;10.57;5.28;;;11.60;53.60;;;;;;5071434;28;20066;-64
2021/01/01 13:19:16;;;;;;;12.10;5.85;;;;;;;;;;5070868;28;20054;-64
2021/01/01 13:21:42;;;;;;;12.35;5.35;;;;;;;;;;5071207;28;20497;-64
2021/01/01 13:24:09;;;;;;;15.43;5.95;;;;;;;;;;5070754;28;20483;-64
2021/01/01 13:26:35;;;;;;;12.35;6.22;;;;;;;;;;5070960;28;20506;-64
2021/01/01 13:29:04;;;;;;;14.68;5.88;;;11.40;54.60;;;;;;5071047;28;20402;-62
2021/01/01 13:31:38;;;;;;;13.40;6.68;;;11.40;55.00;;;;;;5069941;28;20032;-63
2021/01/01 13:34:06;;;;;;;15.02;5.97;;;11.20;54.60;;;;;;5069637;28;20025;-63
2021/01/01 13:36:32;;;;;;;14.70;6.03;;;;;;;;;;5062233;28;20032;-63
2021/01/01 13:38:58;;;;;;;17.60;7.57;;;;;;;;;;5070597;28;20359;-63
2021/01/01 13:41:25;;;;;;;13.25;6.45;;;;;;;;;;5069839;28;20394;-63
2021/01/01 13:43:53;;;;;;;17.38;6.88;;;;;;;;;;5070258;28;20040;-63
2021/01/01 13:46:26;;;;;;;18.02;7.35;;;11.30;56.00;;;;;;5070036;28;20036;-61
2021/01/01 13:48:53;;;;;;;15.88;6.53;;;;;;;;;;5070874;28;20040;-64
2021/01/01 13:51:29;;;;;;;18.83;8.20;;;11.50;56.10;;;;;;5070566;28;20131;-64
2021/01/01 13:53:56;;;;;;;18.45;7.68;;;;;;;;;;5068525;28;20063;-64
2021/01/01 13:56:22;;;;;;;14.88;7.13;;;;;;;;;;5069825;28;20032;-62
2021/01/01 13:58:49;;;;;;;19.90;7.72;;;;;;;;;;5070080;28;20074;-62
2021/01/01 14:01:19;;;;;;;14.75;7.75;;;11.50;56.10;;;;;;5069870;28;20025;-64
2021/01/01 14:03:45;;;;;;;19.02;8.48;;;;;;;;;;5068290;28;20036;-63
2021/01/01 14:06:12;;;;;;;18.40;8.48;;;;;;;;;;5065360;28;20032;-63
2021/01/01 14:08:39;;;;;;;19.25;8.05;;;;;;;;;;5068491;28;20040;-62
2021/01/01 14:11:09;;;;;;;14.75;8.55;;;11.30;57.10;;;;;;5069869;28;20056;-62
2021/01/01 14:13:35;;;;;;;20.55;8.98;;;;;;;;;;5069857;28;20055;-63
2021/01/01 14:16:02;;;;;;;15.93;8.70;;;;;;;;;;5070012;28;20032;-63
2021/01/01 14:18:28;;;;;;;23.85;9.45;;;;;;;;;;5061008;28;20028;-63
2021/01/01 14:20:54;;;;;;;22.13;8.98;;;;;;;;;;5054358;28;20047;-62
2021/01/01 14:23:21;;;;;;;26.17;10.40;;;;;;;;;;5053058;28;20067;-63
2021/01/01 14:25:47;;;;;;;20.88;10.13;;;;;;;;;;5053842;28;20029;-63
2021/01/01 14:28:14;;;;;;;22.85;10.55;;;;;;;;;;5056177;28;20033;-62
2021/01/01 14:30:40;;;;;;;20.30;9.63;;;;;;;;;;5053097;28;20048;-63
2021/01/01 14:33:07;;;;;;;24.83;10.85;;;10.90;57.90;;;;;;5052023;28;20056;-62
2021/01/01 14:35:33;;;;;;;;;;;10.90;57.90;;;;;;5049503;28;20146;-62
2021/01/01 14:37:59;;;;;;;17.70;8.90;;;;;;;;;;5051441;28;19916;-63
2021/01/01 14:40:26;;;;;;;22.92;9.65;;;;;;;;;;5051646;28;20021;-64
2021/01/01 14:42:52;;;;;;;19.98;9.75;;;;;;;;;;5061677;28;20390;-63
2021/01/01 14:45:19;;;;;;;25.35;11.85;;;;;;;;;;5036208;28;20043;-63
2021/01/01 14:47:46;;;;;;;20.67;10.18;;;;;;;;;;5063464;28;20028;-64
2021/01/01 14:50:16;;;;;;;24.30;10.10;;;10.80;57.70;;;;;;5071619;28;20399;-63